sensor_id;sensor_type;location;lat;lon;timestamp;temperature;humidity
75819;DHT22;64453;51.944;9.796;2024-02-16T00:02:24;15.70;80.80
75819;DHT22;64453;51.944;9.796;2024-02-16T00:04:56;15.60;80.80
75819;DHT22;64453;51.944;9.796;2024-02-16T00:07:26;15.70;80.80
75819;DHT22;64453;51.944;9.796;2024-02-16T00:09:53;15.70;80.60
75819;DHT22;64453;51.944;9.796;2024-02-16T00:12:20;15.60;80.60
75819;DHT22;64453;51.944;9.796;2024-02-16T00:14:47;15.50;80.20
75819;DHT22;64453;51.944;9.796;2024-02-16T00:17:13;15.50;80.30
75819;DHT22;64453;51.944;9.796;2024-02-16T00:19:40;15.60;80.20
75819;DHT22;64453;51.944;9.796;2024-02-16T00:22:08;15.50;79.60
75819;DHT22;64453;51.944;9.796;2024-02-16T00:24:37;15.50;79.50
75819;DHT22;64453;51.944;9.796;2024-02-16T00:27:05;15.50;79.80
75819;DHT22;64453;51.944;9.796;2024-02-16T00:29:32;15.30;79.60
75819;DHT22;64453;51.944;9.796;2024-02-16T00:31:59;15.20;79.70
75819;DHT22;64453;51.944;9.796;2024-02-16T00:34:26;15.40;79.80
75819;DHT22;64453;51.944;9.796;2024-02-16T00:36:53;15.40;79.60
75819;DHT22;64453;51.944;9.796;2024-02-16T00:39:19;15.40;79.20
75819;DHT22;64453;51.944;9.796;2024-02-16T00:41:48;15.30;79.10
75819;DHT22;64453;51.944;9.796;2024-02-16T00:44:16;15.20;79.00
75819;DHT22;64453;51.944;9.796;2024-02-16T00:46:43;15.50;79.00
75819;DHT22;64453;51.944;9.796;2024-02-16T00:49:10;15.40;78.60
75819;DHT22;64453;51.944;9.796;2024-02-16T00:51:37;15.50;78.50
75819;DHT22;64453;51.944;9.796;2024-02-16T00:54:04;15.50;78.30
75819;DHT22;64453;51.944;9.796;2024-02-16T00:56:32;15.40;78.40
75819;DHT22;64453;51.944;9.796;2024-02-16T00:59:01;15.40;78.00
75819;DHT22;64453;51.944;9.796;2024-02-16T01:01:28;15.30;78.40
75819;DHT22;64453;51.944;9.796;2024-02-16T01:03:55;15.30;78.60
75819;DHT22;64453;51.944;9.796;2024-02-16T01:06:22;15.10;78.70
75819;DHT22;64453;51.944;9.796;2024-02-16T01:08:49;15.20;78.50
75819;DHT22;64453;51.944;9.796;2024-02-16T01:11:16;15.20;78.30
75819;DHT22;64453;51.944;9.796;2024-02-16T01:13:45;15.10;78.30
75819;DHT22;64453;51.944;9.796;2024-02-16T01:16:15;15.20;78.50
75819;DHT22;64453;51.944;9.796;2024-02-16T01:18:44;15.30;78.10
75819;DHT22;64453;51.944;9.796;2024-02-16T01:21:11;15.30;78.10
75819;DHT22;64453;51.944;9.796;2024-02-16T01:23:38;15.30;77.90
75819;DHT22;64453;51.944;9.796;2024-02-16T01:26:05;15.20;77.20
75819;DHT22;64453;51.944;9.796;2024-02-16T01:28:34;15.20;78.00
75819;DHT22;64453;51.944;9.796;2024-02-16T01:31:01;15.20;78.20
75819;DHT22;64453;51.944;9.796;2024-02-16T01:33:29;15.20;77.90
75819;DHT22;64453;51.944;9.796;2024-02-16T01:36:00;15.20;77.20
75819;DHT22;64453;51.944;9.796;2024-02-16T01:38:26;15.10;76.90
75819;DHT22;64453;51.944;9.796;2024-02-16T01:40:54;15.30;77.50
75819;DHT22;64453;51.944;9.796;2024-02-16T01:43:21;15.30;77.10
75819;DHT22;64453;51.944;9.796;2024-02-16T01:45:48;15.40;76.90
75819;DHT22;64453;51.944;9.796;2024-02-16T01:48:15;15.50;76.50
75819;DHT22;64453;51.944;9.796;2024-02-16T01:50:45;15.50;76.60
75819;DHT22;64453;51.944;9.796;2024-02-16T01:53:18;15.40;76.80
75819;DHT22;64453;51.944;9.796;2024-02-16T01:55:45;15.30;77.00
75819;DHT22;64453;51.944;9.796;2024-02-16T01:58:13;15.50;76.70
75819;DHT22;64453;51.944;9.796;2024-02-16T02:00:40;15.40;77.40
75819;DHT22;64453;51.944;9.796;2024-02-16T02:03:07;15.30;76.80
75819;DHT22;64453;51.944;9.796;2024-02-16T02:05:45;15.20;77.10
75819;DHT22;64453;51.944;9.796;2024-02-16T02:08:13;15.40;77.00
75819;DHT22;64453;51.944;9.796;2024-02-16T02:10:42;15.30;76.60
75819;DHT22;64453;51.944;9.796;2024-02-16T02:13:09;15.20;76.60
75819;DHT22;64453;51.944;9.796;2024-02-16T02:15:36;15.20;76.60
75819;DHT22;64453;51.944;9.796;2024-02-16T02:18:03;15.20;76.30
75819;DHT22;64453;51.944;9.796;2024-02-16T02:20:31;15.30;76.40
75819;DHT22;64453;51.944;9.796;2024-02-16T02:23:00;15.20;76.40
75819;DHT22;64453;51.944;9.796;2024-02-16T02:25:29;15.30;76.80
75819;DHT22;64453;51.944;9.796;2024-02-16T02:27:56;15.20;76.30
75819;DHT22;64453;51.944;9.796;2024-02-16T02:30:23;15.30;76.30
75819;DHT22;64453;51.944;9.796;2024-02-16T02:32:50;15.40;76.10
75819;DHT22;64453;51.944;9.796;2024-02-16T02:35:18;15.50;75.80
75819;DHT22;64453;51.944;9.796;2024-02-16T02:37:46;15.30;75.50
75819;DHT22;64453;51.944;9.796;2024-02-16T02:40:21;15.20;76.30
75819;DHT22;64453;51.944;9.796;2024-02-16T02:42:47;15.20;75.70
75819;DHT22;64453;51.944;9.796;2024-02-16T02:45:14;15.30;75.80
75819;DHT22;64453;51.944;9.796;2024-02-16T02:47:41;15.30;75.50
75819;DHT22;64453;51.944;9.796;2024-02-16T02:50:09;15.30;75.40
75819;DHT22;64453;51.944;9.796;2024-02-16T02:52:36;15.30;75.50
75819;DHT22;64453;51.944;9.796;2024-02-16T02:55:04;15.20;75.10
75819;DHT22;64453;51.944;9.796;2024-02-16T02:57:33;15.20;75.10
75819;DHT22;64453;51.944;9.796;2024-02-16T03:00:04;15.20;75.10
75819;DHT22;64453;51.944;9.796;2024-02-16T03:02:36;15.30;75.00
75819;DHT22;64453;51.944;9.796;2024-02-16T03:05:04;15.30;75.00
75819;DHT22;64453;51.944;9.796;2024-02-16T03:07:32;15.30;75.10
75819;DHT22;64453;51.944;9.796;2024-02-16T03:09:59;15.40;74.50
75819;DHT22;64453;51.944;9.796;2024-02-16T03:12:26;15.30;74.80
75819;DHT22;64453;51.944;9.796;2024-02-16T03:14:56;15.40;74.80
75819;DHT22;64453;51.944;9.796;2024-02-16T03:17:23;15.30;74.80
75819;DHT22;64453;51.944;9.796;2024-02-16T03:19:50;15.30;74.80
75819;DHT22;64453;51.944;9.796;2024-02-16T03:22:17;15.20;74.80
75819;DHT22;64453;51.944;9.796;2024-02-16T03:24:44;15.30;74.70
75819;DHT22;64453;51.944;9.796;2024-02-16T03:27:12;15.40;74.60
75819;DHT22;64453;51.944;9.796;2024-02-16T03:29:39;15.40;74.60
75819;DHT22;64453;51.944;9.796;2024-02-16T03:32:08;15.30;74.10
75819;DHT22;64453;51.944;9.796;2024-02-16T03:34:35;15.40;74.40
75819;DHT22;64453;51.944;9.796;2024-02-16T03:37:02;15.30;74.80
75819;DHT22;64453;51.944;9.796;2024-02-16T03:39:29;15.40;74.40
75819;DHT22;64453;51.944;9.796;2024-02-16T03:41:56;15.40;74.10
75819;DHT22;64453;51.944;9.796;2024-02-16T03:44:23;15.50;73.90
75819;DHT22;64453;51.944;9.796;2024-02-16T03:46:50;15.40;73.90
75819;DHT22;64453;51.944;9.796;2024-02-16T03:49:18;15.30;73.60
75819;DHT22;64453;51.944;9.796;2024-02-16T03:51:46;15.10;73.70
75819;DHT22;64453;51.944;9.796;2024-02-16T03:54:14;15.20;74.40
75819;DHT22;64453;51.944;9.796;2024-02-16T03:56:41;15.20;74.40
75819;DHT22;64453;51.944;9.796;2024-02-16T03:59:08;15.10;74.60
75819;DHT22;64453;51.944;9.796;2024-02-16T04:01:36;15.10;74.10
75819;DHT22;64453;51.944;9.796;2024-02-16T04:04:03;15.00;74.60
75819;DHT22;64453;51.944;9.796;2024-02-16T04:06:32;15.10;74.60
75819;DHT22;64453;51.944;9.796;2024-02-16T04:08:59;15.10;75.50
75819;DHT22;64453;51.944;9.796;2024-02-16T04:11:26;15.10;74.20
75819;DHT22;64453;51.944;9.796;2024-02-16T04:13:54;15.20;74.40
75819;DHT22;64453;51.944;9.796;2024-02-16T04:16:21;15.30;74.80
75819;DHT22;64453;51.944;9.796;2024-02-16T04:18:50;15.30;74.50
75819;DHT22;64453;51.944;9.796;2024-02-16T04:21:17;15.20;74.20
75819;DHT22;64453;51.944;9.796;2024-02-16T04:23:46;15.20;74.50
75819;DHT22;64453;51.944;9.796;2024-02-16T04:26:12;15.10;74.10
75819;DHT22;64453;51.944;9.796;2024-02-16T04:28:39;15.20;74.20
75819;DHT22;64453;51.944;9.796;2024-02-16T04:31:06;15.30;74.30
75819;DHT22;64453;51.944;9.796;2024-02-16T04:33:33;15.20;73.80
75819;DHT22;64453;51.944;9.796;2024-02-16T04:36:00;15.30;73.90
75819;DHT22;64453;51.944;9.796;2024-02-16T04:38:27;15.40;73.80
75819;DHT22;64453;51.944;9.796;2024-02-16T04:40:56;15.20;73.60
75819;DHT22;64453;51.944;9.796;2024-02-16T04:43:23;15.10;73.90
75819;DHT22;64453;51.944;9.796;2024-02-16T04:45:50;15.30;73.80
75819;DHT22;64453;51.944;9.796;2024-02-16T04:48:17;15.10;73.70
75819;DHT22;64453;51.944;9.796;2024-02-16T04:50:44;15.00;73.90
75819;DHT22;64453;51.944;9.796;2024-02-16T04:53:11;15.20;73.90
75819;DHT22;64453;51.944;9.796;2024-02-16T04:55:39;15.00;73.40
75819;DHT22;64453;51.944;9.796;2024-02-16T04:58:10;15.10;74.00
75819;DHT22;64453;51.944;9.796;2024-02-16T05:00:38;15.20;74.00
75819;DHT22;64453;51.944;9.796;2024-02-16T05:03:05;15.00;73.90
75819;DHT22;64453;51.944;9.796;2024-02-16T05:05:32;15.20;74.00
75819;DHT22;64453;51.944;9.796;2024-02-16T05:08:00;15.30;73.90
75819;DHT22;64453;51.944;9.796;2024-02-16T05:10:27;15.20;74.10
75819;DHT22;64453;51.944;9.796;2024-02-16T05:12:55;15.40;74.00
75819;DHT22;64453;51.944;9.796;2024-02-16T05:15:25;15.40;73.80
75819;DHT22;64453;51.944;9.796;2024-02-16T05:17:53;15.50;73.50
75819;DHT22;64453;51.944;9.796;2024-02-16T05:20:20;15.50;73.60
75819;DHT22;64453;51.944;9.796;2024-02-16T05:22:47;15.50;73.80
75819;DHT22;64453;51.944;9.796;2024-02-16T05:25:16;15.40;73.80
75819;DHT22;64453;51.944;9.796;2024-02-16T05:27:44;15.40;74.10
75819;DHT22;64453;51.944;9.796;2024-02-16T05:30:12;15.40;73.90
75819;DHT22;64453;51.944;9.796;2024-02-16T05:32:42;15.30;74.00
75819;DHT22;64453;51.944;9.796;2024-02-16T05:35:10;15.40;74.00
75819;DHT22;64453;51.944;9.796;2024-02-16T05:37:39;15.40;73.70
75819;DHT22;64453;51.944;9.796;2024-02-16T05:40:10;15.20;73.30
75819;DHT22;64453;51.944;9.796;2024-02-16T05:42:47;15.40;74.00
75819;DHT22;64453;51.944;9.796;2024-02-16T05:45:15;15.40;73.60
75819;DHT22;64453;51.944;9.796;2024-02-16T05:47:45;15.40;73.30
75819;DHT22;64453;51.944;9.796;2024-02-16T05:50:12;15.40;73.40
75819;DHT22;64453;51.944;9.796;2024-02-16T05:52:39;15.40;73.30
75819;DHT22;64453;51.944;9.796;2024-02-16T05:55:07;15.40;73.60
75819;DHT22;64453;51.944;9.796;2024-02-16T05:57:35;15.40;73.70
75819;DHT22;64453;51.944;9.796;2024-02-16T06:00:04;15.30;73.50
75819;DHT22;64453;51.944;9.796;2024-02-16T06:02:32;15.40;73.70
75819;DHT22;64453;51.944;9.796;2024-02-16T06:05:01;15.40;73.50
75819;DHT22;64453;51.944;9.796;2024-02-16T06:07:29;15.30;73.60
75819;DHT22;64453;51.944;9.796;2024-02-16T06:09:57;15.30;73.70
75819;DHT22;64453;51.944;9.796;2024-02-16T06:12:25;15.30;74.00
75819;DHT22;64453;51.944;9.796;2024-02-16T06:14:52;15.20;73.70
75819;DHT22;64453;51.944;9.796;2024-02-16T06:17:20;15.20;73.90
75819;DHT22;64453;51.944;9.796;2024-02-16T06:19:46;15.20;73.90
75819;DHT22;64453;51.944;9.796;2024-02-16T06:22:15;15.20;74.00
75819;DHT22;64453;51.944;9.796;2024-02-16T06:24:42;15.20;74.20
75819;DHT22;64453;51.944;9.796;2024-02-16T06:27:09;14.90;73.80
75819;DHT22;64453;51.944;9.796;2024-02-16T06:29:36;15.10;74.40
75819;DHT22;64453;51.944;9.796;2024-02-16T06:32:04;14.90;74.60
75819;DHT22;64453;51.944;9.796;2024-02-16T06:34:31;15.00;74.50
75819;DHT22;64453;51.944;9.796;2024-02-16T06:36:58;15.10;74.40
75819;DHT22;64453;51.944;9.796;2024-02-16T06:39:27;15.10;74.20
75819;DHT22;64453;51.944;9.796;2024-02-16T06:41:56;15.10;74.20
75819;DHT22;64453;51.944;9.796;2024-02-16T06:44:23;15.20;74.30
75819;DHT22;64453;51.944;9.796;2024-02-16T06:46:50;15.10;74.10
75819;DHT22;64453;51.944;9.796;2024-02-16T06:49:17;15.10;74.10
75819;DHT22;64453;51.944;9.796;2024-02-16T06:51:44;15.10;74.00
75819;DHT22;64453;51.944;9.796;2024-02-16T06:54:11;15.10;73.90
75819;DHT22;64453;51.944;9.796;2024-02-16T06:56:39;15.10;74.00
75819;DHT22;64453;51.944;9.796;2024-02-16T06:59:06;15.00;74.20
75819;DHT22;64453;51.944;9.796;2024-02-16T07:01:35;15.00;73.70
75819;DHT22;64453;51.944;9.796;2024-02-16T07:04:02;14.90;73.90
75819;DHT22;64453;51.944;9.796;2024-02-16T07:06:32;15.00;74.70
75819;DHT22;64453;51.944;9.796;2024-02-16T07:08:59;15.10;74.40
75819;DHT22;64453;51.944;9.796;2024-02-16T07:11:26;15.00;73.90
75819;DHT22;64453;51.944;9.796;2024-02-16T07:13:54;15.10;74.10
75819;DHT22;64453;51.944;9.796;2024-02-16T07:16:21;14.90;73.90
75819;DHT22;64453;51.944;9.796;2024-02-16T07:18:48;14.90;74.70
75819;DHT22;64453;51.944;9.796;2024-02-16T07:21:15;15.10;74.80
75819;DHT22;64453;51.944;9.796;2024-02-16T07:23:46;15.10;74.90
75819;DHT22;64453;51.944;9.796;2024-02-16T07:26:13;15.20;74.80
75819;DHT22;64453;51.944;9.796;2024-02-16T07:28:41;15.20;74.70
75819;DHT22;64453;51.944;9.796;2024-02-16T07:31:10;15.20;74.50
75819;DHT22;64453;51.944;9.796;2024-02-16T07:33:37;15.10;74.80
75819;DHT22;64453;51.944;9.796;2024-02-16T07:36:04;15.10;74.60
75819;DHT22;64453;51.944;9.796;2024-02-16T07:38:33;15.10;74.60
75819;DHT22;64453;51.944;9.796;2024-02-16T07:41:00;15.10;74.60
75819;DHT22;64453;51.944;9.796;2024-02-16T07:43:27;15.20;74.90
75819;DHT22;64453;51.944;9.796;2024-02-16T07:45:54;15.20;74.40
75819;DHT22;64453;51.944;9.796;2024-02-16T07:48:24;15.20;74.70
75819;DHT22;64453;51.944;9.796;2024-02-16T07:50:53;15.10;74.90
75819;DHT22;64453;51.944;9.796;2024-02-16T07:53:20;15.10;75.10
75819;DHT22;64453;51.944;9.796;2024-02-16T07:55:46;15.10;74.90
75819;DHT22;64453;51.944;9.796;2024-02-16T07:58:13;15.00;74.90
75819;DHT22;64453;51.944;9.796;2024-02-16T08:00:40;15.30;75.30
75819;DHT22;64453;51.944;9.796;2024-02-16T08:03:07;15.30;75.30
75819;DHT22;64453;51.944;9.796;2024-02-16T08:05:35;15.40;75.00
75819;DHT22;64453;51.944;9.796;2024-02-16T08:08:03;15.50;75.10
75819;DHT22;64453;51.944;9.796;2024-02-16T08:10:30;15.50;75.70
75819;DHT22;64453;51.944;9.796;2024-02-16T08:12:57;15.50;75.80
75819;DHT22;64453;51.944;9.796;2024-02-16T08:15:25;15.50;75.70
75819;DHT22;64453;51.944;9.796;2024-02-16T08:17:52;15.50;75.30
75819;DHT22;64453;51.944;9.796;2024-02-16T08:20:19;15.40;74.60
75819;DHT22;64453;51.944;9.796;2024-02-16T08:22:48;15.50;75.10
75819;DHT22;64453;51.944;9.796;2024-02-16T08:25:15;15.40;74.40
75819;DHT22;64453;51.944;9.796;2024-02-16T08:39:20;15.60;75.40
75819;DHT22;64453;51.944;9.796;2024-02-16T08:41:50;15.50;75.50
75819;DHT22;64453;51.944;9.796;2024-02-16T08:44:17;15.70;75.70
75819;DHT22;64453;51.944;9.796;2024-02-16T08:46:46;15.60;75.50
75819;DHT22;64453;51.944;9.796;2024-02-16T08:49:15;15.70;75.50
75819;DHT22;64453;51.944;9.796;2024-02-16T08:51:42;15.70;75.30
75819;DHT22;64453;51.944;9.796;2024-02-16T08:54:10;15.70;75.40
75819;DHT22;64453;51.944;9.796;2024-02-16T08:56:38;15.80;75.30
75819;DHT22;64453;51.944;9.796;2024-02-16T08:59:05;15.80;75.60
75819;DHT22;64453;51.944;9.796;2024-02-16T09:01:32;15.80;75.50
75819;DHT22;64453;51.944;9.796;2024-02-16T09:04:00;15.90;75.70
75819;DHT22;64453;51.944;9.796;2024-02-16T09:06:27;15.90;75.80
75819;DHT22;64453;51.944;9.796;2024-02-16T09:08:54;16.00;75.30
75819;DHT22;64453;51.944;9.796;2024-02-16T09:11:22;16.10;76.00
75819;DHT22;64453;51.944;9.796;2024-02-16T09:13:50;16.10;76.00
75819;DHT22;64453;51.944;9.796;2024-02-16T09:16:18;16.10;75.80
75819;DHT22;64453;51.944;9.796;2024-02-16T09:18:45;16.10;75.40
75819;DHT22;64453;51.944;9.796;2024-02-16T09:21:14;16.20;75.50
75819;DHT22;64453;51.944;9.796;2024-02-16T09:23:41;16.20;75.60
75819;DHT22;64453;51.944;9.796;2024-02-16T09:26:08;16.30;75.30
75819;DHT22;64453;51.944;9.796;2024-02-16T09:28:39;16.20;74.40
75819;DHT22;64453;51.944;9.796;2024-02-16T09:31:10;16.20;75.10
75819;DHT22;64453;51.944;9.796;2024-02-16T09:33:40;16.30;75.30
75819;DHT22;64453;51.944;9.796;2024-02-16T09:36:07;16.50;75.50
75819;DHT22;64453;51.944;9.796;2024-02-16T09:38:34;16.40;75.80
75819;DHT22;64453;51.944;9.796;2024-02-16T09:41:01;16.40;74.90
75819;DHT22;64453;51.944;9.796;2024-02-16T09:43:29;16.40;75.30
75819;DHT22;64453;51.944;9.796;2024-02-16T09:45:57;16.50;75.00
75819;DHT22;64453;51.944;9.796;2024-02-16T09:48:28;16.50;75.20
75819;DHT22;64453;51.944;9.796;2024-02-16T09:50:56;16.50;75.60
75819;DHT22;64453;51.944;9.796;2024-02-16T09:53:25;16.50;75.70
75819;DHT22;64453;51.944;9.796;2024-02-16T09:55:53;16.60;75.80
75819;DHT22;64453;51.944;9.796;2024-02-16T09:58:20;16.60;75.60
75819;DHT22;64453;51.944;9.796;2024-02-16T10:00:48;16.60;75.60
75819;DHT22;64453;51.944;9.796;2024-02-16T10:03:23;16.60;75.30
75819;DHT22;64453;51.944;9.796;2024-02-16T10:05:52;16.60;75.70
75819;DHT22;64453;51.944;9.796;2024-02-16T10:08:19;16.60;75.50
75819;DHT22;64453;51.944;9.796;2024-02-16T10:10:47;16.70;75.70
75819;DHT22;64453;51.944;9.796;2024-02-16T10:13:15;16.60;75.60
75819;DHT22;64453;51.944;9.796;2024-02-16T10:15:42;16.60;75.20
75819;DHT22;64453;51.944;9.796;2024-02-16T10:18:10;16.60;75.50
75819;DHT22;64453;51.944;9.796;2024-02-16T10:20:38;16.70;75.40
75819;DHT22;64453;51.944;9.796;2024-02-16T10:23:09;16.80;75.40
75819;DHT22;64453;51.944;9.796;2024-02-16T10:25:37;16.80;75.00
75819;DHT22;64453;51.944;9.796;2024-02-16T10:30:36;16.70;74.40
75819;DHT22;64453;51.944;9.796;2024-02-16T10:33:05;16.90;73.50
75819;DHT22;64453;51.944;9.796;2024-02-16T10:35:34;16.90;72.80
75819;DHT22;64453;51.944;9.796;2024-02-16T10:38:02;17.00;73.00
75819;DHT22;64453;51.944;9.796;2024-02-16T10:40:32;17.00;73.10
75819;DHT22;64453;51.944;9.796;2024-02-16T10:43:03;17.00;72.80
75819;DHT22;64453;51.944;9.796;2024-02-16T10:45:33;17.10;73.50
75819;DHT22;64453;51.944;9.796;2024-02-16T10:48:02;17.10;73.30
75819;DHT22;64453;51.944;9.796;2024-02-16T10:50:32;17.10;74.10
75819;DHT22;64453;51.944;9.796;2024-02-16T10:53:05;17.10;73.80
75819;DHT22;64453;51.944;9.796;2024-02-16T10:55:36;17.00;73.00
75819;DHT22;64453;51.944;9.796;2024-02-16T10:58:06;17.10;73.10
75819;DHT22;64453;51.944;9.796;2024-02-16T11:00:33;17.20;73.00
75819;DHT22;64453;51.944;9.796;2024-02-16T11:03:05;17.20;71.80
75819;DHT22;64453;51.944;9.796;2024-02-16T11:05:34;17.30;72.30
75819;DHT22;64453;51.944;9.796;2024-02-16T11:08:02;17.20;70.30
75819;DHT22;64453;51.944;9.796;2024-02-16T11:10:30;17.20;71.70
75819;DHT22;64453;51.944;9.796;2024-02-16T11:13:02;17.30;72.60
75819;DHT22;64453;51.944;9.796;2024-02-16T11:15:31;17.30;71.10
75819;DHT22;64453;51.944;9.796;2024-02-16T11:18:00;17.40;72.00
75819;DHT22;64453;51.944;9.796;2024-02-16T11:20:36;17.40;71.70
75819;DHT22;64453;51.944;9.796;2024-02-16T11:23:05;17.50;71.30
75819;DHT22;64453;51.944;9.796;2024-02-16T11:25:34;17.40;70.90
75819;DHT22;64453;51.944;9.796;2024-02-16T11:28:02;17.50;71.30
75819;DHT22;64453;51.944;9.796;2024-02-16T11:30:32;17.50;70.70
75819;DHT22;64453;51.944;9.796;2024-02-16T11:33:01;17.50;71.40
75819;DHT22;64453;51.944;9.796;2024-02-16T11:35:29;17.60;71.20
75819;DHT22;64453;51.944;9.796;2024-02-16T11:37:56;17.60;71.20
75819;DHT22;64453;51.944;9.796;2024-02-16T11:40:23;17.50;70.80
75819;DHT22;64453;51.944;9.796;2024-02-16T11:42:57;17.60;70.70
75819;DHT22;64453;51.944;9.796;2024-02-16T11:45:25;17.50;70.60
75819;DHT22;64453;51.944;9.796;2024-02-16T11:48:03;17.50;70.70
75819;DHT22;64453;51.944;9.796;2024-02-16T11:50:33;17.60;70.60
75819;DHT22;64453;51.944;9.796;2024-02-16T11:53:00;17.60;71.30
75819;DHT22;64453;51.944;9.796;2024-02-16T11:55:27;17.70;71.40
75819;DHT22;64453;51.944;9.796;2024-02-16T11:57:53;17.70;70.90
75819;DHT22;64453;51.944;9.796;2024-02-16T12:00:22;17.70;70.70
75819;DHT22;64453;51.944;9.796;2024-02-16T12:02:59;17.80;71.60
75819;DHT22;64453;51.944;9.796;2024-02-16T12:05:26;17.70;71.30
75819;DHT22;64453;51.944;9.796;2024-02-16T12:07:57;17.70;71.30
75819;DHT22;64453;51.944;9.796;2024-02-16T12:10:25;17.70;70.90
75819;DHT22;64453;51.944;9.796;2024-02-16T12:12:52;17.70;71.20
75819;DHT22;64453;51.944;9.796;2024-02-16T12:15:21;17.80;71.40
75819;DHT22;64453;51.944;9.796;2024-02-16T12:17:58;17.80;72.70
75819;DHT22;64453;51.944;9.796;2024-02-16T12:20:29;17.80;73.40
75819;DHT22;64453;51.944;9.796;2024-02-16T12:22:58;17.80;72.50
75819;DHT22;64453;51.944;9.796;2024-02-16T12:25:27;17.90;72.40
75819;DHT22;64453;51.944;9.796;2024-02-16T12:27:54;17.90;73.00
75819;DHT22;64453;51.944;9.796;2024-02-16T12:30:21;17.90;72.40
75819;DHT22;64453;51.944;9.796;2024-02-16T12:32:48;18.00;72.80
75819;DHT22;64453;51.944;9.796;2024-02-16T12:35:15;17.90;72.10
75819;DHT22;64453;51.944;9.796;2024-02-16T12:37:42;17.90;71.90
75819;DHT22;64453;51.944;9.796;2024-02-16T12:40:12;17.70;72.50
75819;DHT22;64453;51.944;9.796;2024-02-16T12:42:39;17.80;72.60
75819;DHT22;64453;51.944;9.796;2024-02-16T12:45:06;17.80;72.60
75819;DHT22;64453;51.944;9.796;2024-02-16T12:47:33;17.80;72.60
75819;DHT22;64453;51.944;9.796;2024-02-16T12:50:00;17.80;73.50
75819;DHT22;64453;51.944;9.796;2024-02-16T12:52:27;17.80;74.40
75819;DHT22;64453;51.944;9.796;2024-02-16T12:54:56;17.60;74.50
75819;DHT22;64453;51.944;9.796;2024-02-16T12:57:25;17.60;74.70
75819;DHT22;64453;51.944;9.796;2024-02-16T12:59:54;17.70;74.50
75819;DHT22;64453;51.944;9.796;2024-02-16T13:02:21;17.70;75.70
75819;DHT22;64453;51.944;9.796;2024-02-16T13:04:48;17.70;74.90
75819;DHT22;64453;51.944;9.796;2024-02-16T13:07:14;17.50;76.00
75819;DHT22;64453;51.944;9.796;2024-02-16T13:09:41;17.40;75.70
75819;DHT22;64453;51.944;9.796;2024-02-16T13:12:08;17.70;75.90
75819;DHT22;64453;51.944;9.796;2024-02-16T13:14:36;17.70;75.90
75819;DHT22;64453;51.944;9.796;2024-02-16T13:17:04;17.80;76.10
75819;DHT22;64453;51.944;9.796;2024-02-16T13:19:31;17.80;75.30
75819;DHT22;64453;51.944;9.796;2024-02-16T13:21:59;17.80;75.30
75819;DHT22;64453;51.944;9.796;2024-02-16T13:24:27;17.70;75.70
75819;DHT22;64453;51.944;9.796;2024-02-16T13:26:53;17.70;76.50
75819;DHT22;64453;51.944;9.796;2024-02-16T13:29:21;17.50;76.40
75819;DHT22;64453;51.944;9.796;2024-02-16T13:31:50;17.50;78.10
75819;DHT22;64453;51.944;9.796;2024-02-16T13:34:17;17.40;78.10
75819;DHT22;64453;51.944;9.796;2024-02-16T13:36:45;17.30;78.60
75819;DHT22;64453;51.944;9.796;2024-02-16T13:39:11;17.40;79.10
75819;DHT22;64453;51.944;9.796;2024-02-16T13:41:39;17.60;78.10
75819;DHT22;64453;51.944;9.796;2024-02-16T13:44:06;17.80;77.50
75819;DHT22;64453;51.944;9.796;2024-02-16T13:46:33;17.80;77.40
75819;DHT22;64453;51.944;9.796;2024-02-16T13:49:02;17.80;78.00
75819;DHT22;64453;51.944;9.796;2024-02-16T13:51:29;17.80;77.40
75819;DHT22;64453;51.944;9.796;2024-02-16T13:53:56;17.80;77.40
75819;DHT22;64453;51.944;9.796;2024-02-16T13:56:23;17.80;77.60
75819;DHT22;64453;51.944;9.796;2024-02-16T13:58:50;17.70;78.20
75819;DHT22;64453;51.944;9.796;2024-02-16T14:01:17;17.70;78.30
75819;DHT22;64453;51.944;9.796;2024-02-16T14:03:44;17.40;79.20
75819;DHT22;64453;51.944;9.796;2024-02-16T14:06:13;17.60;79.20
75819;DHT22;64453;51.944;9.796;2024-02-16T14:08:40;17.50;79.20
75819;DHT22;64453;51.944;9.796;2024-02-16T14:11:07;17.60;79.70
75819;DHT22;64453;51.944;9.796;2024-02-16T14:13:34;17.60;79.40
75819;DHT22;64453;51.944;9.796;2024-02-16T14:16:01;17.60;79.00
75819;DHT22;64453;51.944;9.796;2024-02-16T14:18:29;17.80;78.90
75819;DHT22;64453;51.944;9.796;2024-02-16T14:20:56;17.70;78.80
75819;DHT22;64453;51.944;9.796;2024-02-16T14:23:24;17.50;78.90
75819;DHT22;64453;51.944;9.796;2024-02-16T14:25:51;17.70;78.90
75819;DHT22;64453;51.944;9.796;2024-02-16T14:28:18;17.70;79.00
75819;DHT22;64453;51.944;9.796;2024-02-16T14:30:45;17.70;78.20
75819;DHT22;64453;51.944;9.796;2024-02-16T14:33:12;17.80;77.90
75819;DHT22;64453;51.944;9.796;2024-02-16T14:35:42;17.70;78.10
75819;DHT22;64453;51.944;9.796;2024-02-16T14:38:09;17.80;78.30
75819;DHT22;64453;51.944;9.796;2024-02-16T14:40:39;17.80;77.80
75819;DHT22;64453;51.944;9.796;2024-02-16T14:43:06;17.90;78.40
75819;DHT22;64453;51.944;9.796;2024-02-16T14:45:35;17.90;78.00
75819;DHT22;64453;51.944;9.796;2024-02-16T14:48:04;18.00;77.90
75819;DHT22;64453;51.944;9.796;2024-02-16T14:50:31;17.90;77.70
75819;DHT22;64453;51.944;9.796;2024-02-16T14:53:00;18.00;77.60
75819;DHT22;64453;51.944;9.796;2024-02-16T14:55:27;17.90;77.30
75819;DHT22;64453;51.944;9.796;2024-02-16T14:57:56;17.70;78.20
75819;DHT22;64453;51.944;9.796;2024-02-16T15:00:24;17.50;78.50
75819;DHT22;64453;51.944;9.796;2024-02-16T15:02:51;17.60;79.00
75819;DHT22;64453;51.944;9.796;2024-02-16T15:05:18;17.60;79.00
75819;DHT22;64453;51.944;9.796;2024-02-16T15:07:46;17.50;79.30
75819;DHT22;64453;51.944;9.796;2024-02-16T15:10:13;17.50;78.90
75819;DHT22;64453;51.944;9.796;2024-02-16T15:12:39;17.30;79.10
75819;DHT22;64453;51.944;9.796;2024-02-16T15:15:09;17.20;79.60
75819;DHT22;64453;51.944;9.796;2024-02-16T15:17:37;17.10;80.20
75819;DHT22;64453;51.944;9.796;2024-02-16T15:20:06;17.10;80.50
75819;DHT22;64453;51.944;9.796;2024-02-16T15:22:33;17.20;80.50
75819;DHT22;64453;51.944;9.796;2024-02-16T15:25:00;17.20;80.60
75819;DHT22;64453;51.944;9.796;2024-02-16T15:27:27;17.30;80.20
75819;DHT22;64453;51.944;9.796;2024-02-16T15:29:54;17.30;80.70
75819;DHT22;64453;51.944;9.796;2024-02-16T15:32:23;17.40;80.20
75819;DHT22;64453;51.944;9.796;2024-02-16T15:34:50;17.30;79.40
75819;DHT22;64453;51.944;9.796;2024-02-16T15:37:18;17.50;80.50
75819;DHT22;64453;51.944;9.796;2024-02-16T15:39:46;17.40;79.90
75819;DHT22;64453;51.944;9.796;2024-02-16T15:42:13;17.50;78.90
75819;DHT22;64453;51.944;9.796;2024-02-16T15:44:41;17.20;80.30
75819;DHT22;64453;51.944;9.796;2024-02-16T15:47:08;17.10;81.30
75819;DHT22;64453;51.944;9.796;2024-02-16T15:49:39;17.00;81.10